Time;durP1;ratioP1;P1;durP2;ratioP2;P2;SDS_P1;SDS_P2;PMS_P1;PMS_P2;Temp;Humidity;BMP_temperature;BMP_pressure;BME280_temperature;BME280_humidity;BME280_pressure;Samples;Min_cycle;Max_cycle;Signal;HPM_P1;HPM_P2
2023/04/23 00:00:18;;;;;;;83.57;56.47;;;10.30;99.90;;;10.42;100.00;100533.22;5032170;28;20042;-72
2023/04/23 00:02:53;;;;;;;85.65;58.13;;;10.10;99.90;;;10.27;100.00;100517.50;5032581;28;20099;-70
2023/04/23 00:05:26;;;;;;;91.30;58.33;;;10.00;99.90;;;10.36;100.00;100535.91;5032147;28;20041;-71
2023/04/23 00:07:54;;;;;;;87.70;56.95;;;10.00;99.90;;;10.34;100.00;100528.88;5032339;28;20042;-70
2023/04/23 00:10:24;;;;;;;91.30;61.33;;;10.00;99.90;;;10.43;100.00;100516.44;5032294;28;20056;-71
2023/04/23 00:12:53;;;;;;;89.38;60.05;;;10.10;99.90;;;10.09;100.00;100458.59;5032337;28;20132;-70
2023/04/23 00:15:22;;;;;;;91.60;60.38;;;10.20;99.90;;;10.25;100.00;100492.84;5031992;28;20045;-71
2023/04/23 00:17:51;;;;;;;93.40;59.17;;;10.20;99.90;;;10.26;100.00;100481.38;5032057;28;20561;-71
2023/04/23 00:20:19;;;;;;;89.32;57.72;;;10.10;99.90;;;10.45;100.00;100509.38;5031219;28;20391;-70
2023/04/23 00:22:50;;;;;;;92.85;60.65;;;10.10;99.90;;;10.42;100.00;100530.56;5032327;28;20425;-70
2023/04/23 00:25:18;;;;;;;91.68;59.78;;;10.20;99.90;;;10.57;100.00;100511.03;5031811;28;20056;-71
2023/04/23 00:27:47;;;;;;;88.05;60.78;;;10.20;99.90;;;10.45;100.00;100479.44;5032210;28;20041;-71
2023/04/23 00:30:17;;;;;;;91.73;60.83;;;10.30;99.90;;;10.66;100.00;100510.94;5032147;28;20045;-71
2023/04/23 00:32:46;;;;;;;94.55;62.00;;;10.30;99.90;;;10.59;100.00;100501.31;5031937;28;20844;-71
2023/04/23 00:35:14;;;;;;;93.00;60.67;;;10.30;99.90;;;10.55;100.00;100491.69;5032030;28;20046;-71
2023/04/23 00:37:44;;;;;;;91.97;60.28;;;10.30;99.90;;;10.49;100.00;100495.22;5030736;28;20077;-70
2023/04/23 00:40:14;;;;;;;91.88;60.25;;;10.20;99.90;;;10.47;100.00;100493.53;5032487;28;20053;-71
2023/04/23 00:42:44;;;;;;;95.03;62.25;;;10.20;99.90;;;10.60;100.00;100489.84;5030863;28;20056;-70
2023/04/23 00:45:13;;;;;;;90.72;59.53;;;10.20;99.90;;;10.75;100.00;100489.69;5032173;28;20124;-71
2023/04/23 00:47:41;;;;;;;90.65;62.05;;;10.40;99.90;;;10.87;100.00;100490.44;5031853;28;20046;-70
2023/04/23 00:50:11;;;;;;;95.57;62.67;;;10.50;99.90;;;10.87;100.00;100485.13;5046928;28;20049;-71
2023/04/23 00:52:40;;;;;;;91.75;60.08;;;10.60;99.90;;;10.91;100.00;100478.03;5047404;28;20056;-71
2023/04/23 00:55:09;;;;;;;91.28;59.42;;;10.60;99.90;;;10.90;100.00;100484.19;5030675;28;20077;-71
2023/04/23 00:57:39;;;;;;;86.43;57.72;;;10.50;99.90;;;10.97;100.00;100485.91;5030502;28;20057;-71
2023/04/23 01:00:12;;;;;;;91.03;57.35;;;10.60;99.90;;;10.00;100.00;100344.22;5031870;28;20533;-70
2023/04/23 01:02:43;;;;;;;85.32;56.83;;;10.50;99.90;;;10.72;100.00;100479.16;5031756;28;20075;-71
2023/04/23 01:05:14;;;;;;;88.25;57.17;;;10.40;99.90;;;10.85;100.00;100481.63;5050343;28;20068;-71
2023/04/23 01:07:44;;;;;;;81.03;56.47;;;10.50;99.90;;;10.95;100.00;100487.69;5035244;28;20641;-71
2023/04/23 01:10:13;;;;;;;79.75;54.83;;;10.60;99.90;;;10.87;100.00;100466.63;5034186;28;20056;-71
2023/04/23 01:12:43;;;;;;;81.15;55.10;;;10.60;99.90;;;10.97;100.00;100475.31;5035360;28;20041;-72
2023/04/23 01:15:12;;;;;;;78.90;54.72;;;10.70;99.90;;;11.06;100.00;100475.19;5034032;28;20049;-71
2023/04/23 01:17:41;;;;;;;81.55;54.97;;;10.70;99.90;;;11.06;100.00;100474.31;5033965;28;20057;-71
2023/04/23 01:20:11;;;;;;;76.25;53.53;;;10.80;99.90;;;11.27;100.00;100471.38;5035454;28;20051;-71
2023/04/23 01:22:41;;;;;;;78.55;54.83;;;11.00;99.90;;;11.22;100.00;100458.22;5034992;28;20064;-71
2023/04/23 01:25:10;;;;;;;72.53;52.93;;;11.00;99.90;;;11.24;100.00;100472.31;5034982;28;20446;-71
2023/04/23 01:27:39;;;;;;;76.00;52.95;;;11.00;99.90;;;11.14;100.00;100460.09;5035058;28;20300;-71
2023/04/23 01:30:09;;;;;;;80.18;54.28;;;10.90;99.90;;;11.10;100.00;100460.13;5035005;28;20076;-71
2023/04/23 01:32:39;;;;;;;77.25;54.63;;;10.80;99.90;;;11.05;100.00;100468.16;5035519;28;20119;-71
2023/04/23 01:35:11;;;;;;;80.30;56.40;;;10.80;99.90;;;11.09;100.00;100469.84;5050782;28;20053;-71
2023/04/23 01:37:43;;;;;;;83.93;54.85;;;10.80;99.90;;;11.10;100.00;100476.91;5034843;28;20152;-71
2023/04/23 01:40:12;;;;;;;79.18;52.28;;;10.90;99.90;;;11.04;100.00;100474.34;5034820;28;20554;-71
2023/04/23 01:42:41;;;;;;;81.25;55.95;;;10.90;99.90;;;11.12;100.00;100468.94;5034741;28;20140;-71
2023/04/23 01:45:10;;;;;;;76.43;53.13;;;10.90;99.90;;;11.10;100.00;100463.66;5034961;28;20448;-71
2023/04/23 01:47:41;;;;;;;72.88;50.90;;;10.90;99.90;;;11.12;100.00;100466.28;5035222;28;20049;-71
2023/04/23 01:50:10;;;;;;;72.95;51.13;;;11.00;99.90;;;11.16;100.00;100466.25;5035093;28;20041;-71
2023/04/23 01:52:39;;;;;;;71.82;51.47;;;11.00;99.90;;;11.13;100.00;100437.16;5033706;28;20049;-71
2023/04/23 01:55:09;;;;;;;65.78;47.97;;;11.10;99.90;;;11.15;100.00;100460.97;5034546;28;20534;-71
2023/04/23 01:57:37;;;;;;;73.53;49.28;;;11.00;99.90;;;11.27;100.00;100458.13;5034823;28;20045;-71
2023/04/23 02:00:10;;;;;;;67.30;48.17;;;11.10;99.90;;;11.31;100.00;100449.25;5033500;28;20060;-71
2023/04/23 02:02:43;;;;;;;65.43;47.03;;;11.20;99.90;;;11.32;100.00;100446.63;5035458;28;20084;-71
2023/04/23 02:05:15;;;;;;;66.50;46.85;;;11.20;99.90;;;11.25;100.00;100423.75;5035852;28;20418;-71
2023/04/23 02:07:44;;;;;;;66.90;47.08;;;11.30;99.90;;;11.22;100.00;100430.88;5035908;28;20042;-71
2023/04/23 02:10:15;;;;;;;63.92;44.05;;;11.20;99.90;;;11.26;100.00;100446.69;5034462;28;20064;-72
2023/04/23 02:12:45;;;;;;;65.57;45.92;;;11.20;99.90;;;11.32;100.00;100440.44;5036055;28;20441;-71
2023/04/23 02:15:15;;;;;;;62.33;45.55;;;11.10;99.90;;;11.33;100.00;100442.16;5034849;28;20402;-71
2023/04/23 02:17:43;;;;;;;60.03;44.33;;;11.20;99.90;;;11.40;100.00;100439.41;5035128;28;20064;-71
2023/04/23 02:20:12;;;;;;;62.75;44.10;;;11.20;99.90;;;11.51;99.77;100450.75;5036562;28;20685;-71
2023/04/23 02:22:42;;;;;;;58.33;43.22;;;11.30;99.90;;;11.55;99.77;100444.50;5035028;28;20449;-71
2023/04/23 02:25:14;;;;;;;57.10;41.70;;;11.40;99.90;;;11.68;99.05;100453.16;5034240;28;20072;-71
2023/04/23 02:27:44;;;;;;;54.33;40.42;;;11.50;99.90;;;11.78;98.25;100458.28;5033013;28;20049;-71
2023/04/23 02:30:13;;;;;;;50.70;38.42;;;11.60;99.90;;;11.84;97.59;100444.06;5033272;28;20049;-71
2023/04/23 02:32:42;;;;;;;53.58;38.92;;;11.70;99.90;;;11.28;96.90;100354.88;5034589;28;20042;-71
2023/04/23 02:35:12;;;;;;;50.47;38.80;;;11.70;99.90;;;11.82;96.88;100448.50;5034522;28;20041;-71
2023/04/23 02:37:41;;;;;;;48.83;37.65;;;11.70;99.90;;;11.91;96.55;100452.78;5034290;28;20057;-71
2023/04/23 02:40:11;;;;;;;50.03;38.95;;;11.70;99.90;;;11.98;96.46;100454.44;5033929;28;20049;-71
2023/04/23 02:42:39;;;;;;;49.33;39.03;;;11.70;99.90;;;12.00;96.13;100442.03;5034011;28;20045;-71
2023/04/23 02:45:12;;;;;;;50.55;38.38;;;11.80;99.90;;;12.04;95.65;100439.28;5034251;28;20503;-72
2023/04/23 02:47:41;;;;;;;48.40;36.88;;;11.80;99.90;;;12.09;95.63;100439.22;5049422;28;20064;-71
2023/04/23 02:50:10;;;;;;;48.90;35.83;;;11.80;99.90;;;12.03;95.36;100431.38;5032504;28;20053;-70
2023/04/23 02:52:38;;;;;;;47.35;36.88;;;11.80;99.90;;;12.09;95.35;100434.78;5034729;28;20503;-71
2023/04/23 02:55:09;;;;;;;45.85;36.67;;;11.80;99.90;;;11.34;95.46;100307.09;5034767;28;20042;-71
2023/04/23 02:57:38;;;;;;;49.28;36.55;;;11.80;99.90;;;12.03;95.32;100434.00;5052385;28;20053;-71
2023/04/23 03:00:11;;;;;;;45.58;36.90;;;11.80;99.90;;;12.02;96.03;100424.34;5036147;28;20056;-71
2023/04/23 03:02:43;;;;;;;51.40;38.35;;;11.80;99.90;;;12.13;95.56;100427.66;5053096;28;20053;-70
2023/04/23 03:05:12;;;;;;;51.55;38.03;;;11.80;99.90;;;12.17;95.34;100432.00;5036193;28;20077;-71
2023/04/23 03:07:41;;;;;;;47.33;37.70;;;11.90;99.90;;;12.19;95.04;100427.56;5033964;28;20049;-72
2023/04/23 03:10:10;;;;;;;52.08;38.72;;;11.90;99.90;;;12.22;95.17;100419.53;5033592;28;20057;-71
2023/04/23 03:12:39;;;;;;;49.20;35.92;;;12.00;99.90;;;12.34;94.79;100429.91;5033802;28;20152;-72
2023/04/23 03:15:09;;;;;;;50.47;37.05;;;12.10;99.90;;;11.70;95.06;100340.97;5031925;28;20080;-71
2023/04/23 03:17:38;;;;;;;51.22;36.80;;;12.00;99.90;;;12.26;95.26;100419.44;5032054;28;20148;-71
2023/04/23 03:20:10;;;;;;;46.72;36.65;;;12.10;99.90;;;12.42;95.09;100433.31;5033207;28;20040;-71
2023/04/23 03:22:40;;;;;;;47.25;35.92;;;12.10;99.90;;;12.37;95.38;100430.72;5031829;28;20141;-71
2023/04/23 03:25:09;;;;;;;50.08;36.60;;;12.10;99.90;;;12.39;95.42;100422.72;5031961;28;20122;-71
2023/04/23 03:27:39;;;;;;;48.10;36.05;;;12.20;99.90;;;12.46;95.01;100421.72;5031696;28;20073;-71
2023/04/23 03:30:10;;;;;;;47.22;36.67;;;12.20;99.90;;;12.53;94.91;100424.22;5031590;28;20043;-71
2023/04/23 03:32:38;;;;;;;42.25;35.35;;;12.30;99.90;;;12.58;94.67;100418.84;5048244;28;20123;-71
2023/04/23 03:35:09;;;;;;;43.40;34.60;;;12.40;99.90;;;12.37;94.90;100383.00;5032671;28;20083;-71
2023/04/23 03:37:41;;;;;;;45.85;33.75;;;12.40;99.90;;;12.68;94.76;100421.28;5031415;28;20465;-72
2023/04/23 03:40:11;;;;;;;44.92;34.00;;;12.40;99.90;;;12.71;94.42;100417.69;5031294;28;20099;-71
2023/04/23 03:42:41;;;;;;;43.38;34.10;;;12.40;99.90;;;12.78;94.28;100423.72;5030945;28;20050;-71
2023/04/23 03:45:13;;;;;;;39.03;32.33;;;12.50;99.90;;;12.78;93.75;100415.75;5047902;28;20053;-71
2023/04/23 03:47:41;;;;;;;39.90;32.63;;;12.50;99.90;;;12.82;93.85;100421.00;5031396;28;20052;-72
2023/04/23 03:50:13;;;;;;;41.85;31.40;;;12.50;99.90;;;12.82;93.46;100410.38;5031378;28;20037;-72
2023/04/23 03:52:43;;;;;;;41.70;32.70;;;12.50;99.90;;;12.88;93.33;100428.84;5031580;28;20077;-71
2023/04/23 03:55:20;;;;;;;37.67;31.52;;;12.60;99.90;;;12.94;93.59;100430.47;5048258;28;20099;-71
2023/04/23 03:57:49;;;;;;;41.45;31.95;;;12.60;99.90;;;12.91;93.27;100427.91;5030998;28;20568;-72
2023/04/23 04:00:23;;;;;;;38.95;30.83;;;12.60;99.90;;;12.90;92.94;100419.06;5031463;28;20080;-71
2023/04/23 04:02:52;;;;;;;39.92;31.75;;;12.70;99.90;;;12.98;93.20;100421.53;5031212;28;20073;-72
2023/04/23 04:05:24;;;;;;;38.25;30.52;;;12.60;99.90;;;12.91;93.04;100441.19;5032748;28;20048;-72
2023/04/23 04:07:54;;;;;;;38.53;30.63;;;12.60;99.90;;;12.91;93.22;100427.91;5031473;28;20056;-71
2023/04/23 04:10:24;;;;;;;36.15;30.67;;;12.60;99.90;;;12.89;93.14;100425.25;5032715;28;20140;-72
2023/04/23 04:12:54;;;;;;;36.42;30.70;;;12.60;99.90;;;12.84;93.31;100420.94;5032334;28;20057;-71
2023/04/23 04:15:22;;;;;;;38.00;31.35;;;12.60;99.90;;;12.73;94.05;100418.53;5032706;28;20115;-72
2023/04/23 04:17:51;;;;;;;39.42;30.95;;;12.50;99.90;;;12.67;94.19;100416.00;5032178;28;20069;-71
2023/04/23 04:20:19;;;;;;;36.70;30.15;;;12.50;99.90;;;12.81;94.09;100421.91;5032097;28;20076;-71
2023/04/23 04:22:49;;;;;;;36.58;30.42;;;12.50;99.90;;;12.80;93.97;100411.31;5032657;28;20490;-71
2023/04/23 04:25:17;;;;;;;39.20;31.25;;;12.50;99.90;;;12.71;94.32;100417.69;5033031;28;20120;-71
2023/04/23 04:27:46;;;;;;;41.58;30.90;;;12.50;99.90;;;12.77;94.26;100419.34;5032860;28;20037;-71
2023/04/23 04:30:15;;;;;;;40.00;31.20;;;12.50;99.90;;;12.74;94.27;100412.31;5032851;28;20061;-71
2023/04/23 04:32:45;;;;;;;40.80;30.88;;;12.50;99.90;;;12.57;94.42;100406.47;5032100;28;20317;-71
2023/04/23 04:35:13;;;;;;;44.22;31.25;;;12.40;99.90;;;12.40;94.95;100416.53;5031932;28;20041;-71
2023/04/23 04:37:42;;;;;;;41.63;32.05;;;12.30;99.90;;;12.28;95.59;100409.69;5032089;28;20042;-71
2023/04/23 04:40:14;;;;;;;44.58;34.95;;;12.20;99.90;;;12.19;95.95;100409.00;5035201;28;20049;-72
2023/04/23 04:42:42;;;;;;;38.15;31.45;;;12.10;99.90;;;12.19;96.28;100414.28;5035762;28;20042;-72
2023/04/23 04:45:11;;;;;;;40.08;32.80;;;12.00;99.90;;;12.04;96.31;100411.94;5036174;28;20041;-71
2023/04/23 04:47:40;;;;;;;40.83;33.08;;;11.90;99.90;;;11.92;96.47;100420.09;5035966;28;20121;-71
2023/04/23 04:50:10;;;;;;;45.17;34.35;;;11.80;99.90;;;11.84;96.77;100414.91;5034589;28;20072;-71
2023/04/23 04:52:38;;;;;;;41.40;33.27;;;11.70;99.90;;;11.85;96.82;100415.78;5035971;28;20041;-71
2023/04/23 04:55:08;;;;;;;40.88;34.45;;;11.70;99.90;;;11.60;96.86;100396.72;5034678;28;20044;-71
2023/04/23 04:57:37;;;;;;;41.25;33.70;;;11.60;99.90;;;11.68;97.10;100430.19;5035646;28;20128;-71
2023/04/23 05:00:22;;;;;;;43.97;35.03;;;11.50;99.90;;;11.74;97.36;100422.16;5035440;28;20403;-71
2023/04/23 05:02:51;;;;;;;47.47;36.58;;;11.60;99.90;;;11.64;97.75;100423.16;5035352;28;20041;-72
2023/04/23 05:05:21;;;;;;;45.05;36.00;;;11.60;99.90;;;11.60;98.50;100426.75;5035286;28;20045;-71
2023/04/23 05:07:49;;;;;;;48.47;37.00;;;11.50;99.90;;;11.53;98.90;100413.63;5035399;28;20469;-71
2023/04/23 05:10:18;;;;;;;43.40;35.95;;;11.50;99.90;;;11.46;99.42;100422.53;5033990;28;20497;-71
2023/04/23 05:12:50;;;;;;;45.22;35.58;;;11.30;99.90;;;11.41;100.00;100425.28;5035631;28;20075;-71
2023/04/23 05:15:18;;;;;;;47.83;35.75;;;11.30;99.90;;;11.32;99.84;100391.00;5035404;28;20041;-71
2023/04/23 05:17:49;;;;;;;46.38;35.63;;;11.30;99.90;;;11.44;99.75;100413.78;5035224;28;20447;-71
2023/04/23 05:20:17;;;;;;;44.70;35.03;;;11.20;99.90;;;11.36;99.86;100420.97;5034857;28;20037;-72
2023/04/23 05:22:45;;;;;;;48.30;36.42;;;11.20;99.90;;;11.41;100.00;100412.03;5034846;28;20063;-71
2023/04/23 05:25:14;;;;;;;44.20;35.17;;;11.20;99.90;;;11.44;100.00;100408.47;5035069;28;20455;-71
2023/04/23 05:27:42;;;;;;;47.08;34.90;;;11.30;99.90;;;11.43;99.92;100412.91;5035281;28;20060;-71
2023/04/23 05:30:13;;;;;;;45.65;35.15;;;11.30;99.90;;;11.43;99.90;100407.59;5035018;28;20068;-71
2023/04/23 05:32:41;;;;;;;43.83;33.80;;;11.30;99.90;;;11.45;100.00;100405.81;5035090;28;20069;-71
2023/04/23 05:35:10;;;;;;;44.25;34.42;;;11.30;99.90;;;11.54;100.00;100421.53;5034577;28;20458;-71
2023/04/23 05:37:38;;;;;;;49.25;35.55;;;11.40;99.90;;;11.66;100.00;100418.75;5034530;28;20521;-71
2023/04/23 05:40:08;;;;;;;43.60;34.75;;;11.40;99.90;;;11.77;100.00;100405.31;5034593;28;20041;-71
2023/04/23 05:42:37;;;;;;;41.53;34.10;;;11.60;99.90;;;12.01;99.76;100422.56;5034594;28;20034;-71
2023/04/23 05:45:07;;;;;;;44.60;34.00;;;11.80;99.90;;;12.23;99.20;100418.66;5034376;28;20054;-71
2023/04/23 05:47:38;;;;;;;45.70;35.05;;;12.00;99.90;;;12.24;98.68;100409.78;5034822;28;20041;-72
2023/04/23 05:50:10;;;;;;;45.25;34.70;;;12.10;99.90;;;12.47;98.43;100429.66;5033266;28;20038;-71
2023/04/23 05:52:38;;;;;;;45.92;32.50;;;12.30;99.90;;;12.61;97.65;100417.00;5034557;28;20394;-73
2023/04/23 05:55:08;;;;;;;37.17;30.00;;;12.40;99.90;;;12.80;97.23;100420.16;5033346;28;20123;-73
2023/04/23 05:57:38;;;;;;;36.47;29.48;;;12.50;99.90;;;12.94;96.23;100398.63;5035535;28;20120;-72
2023/04/23 06:00:10;;;;;;;37.38;30.27;;;12.90;99.90;;;13.29;95.16;100396.97;5034717;28;20132;-72
2023/04/23 06:02:43;;;;;;;30.17;24.08;;;13.20;99.90;;;13.67;92.89;100424.41;5033233;28;20390;-72
2023/04/23 06:05:12;;;;;;;31.13;23.63;;;13.40;99.90;;;13.74;91.62;100429.56;5034267;28;20045;-72
2023/04/23 06:07:41;;;;;;;26.27;22.25;;;13.50;99.90;;;14.01;90.95;100418.25;5033602;28;20115;-72
2023/04/23 06:10:11;;;;;;;28.80;22.23;;;13.70;99.90;;;13.91;89.20;100421.16;5032806;28;20057;-72
2023/04/23 06:12:40;;;;;;;27.92;21.80;;;13.80;99.90;;;14.14;88.34;100418.78;5034425;28;20041;-72
2023/04/23 06:15:10;;;;;;;25.90;20.40;;;13.90;99.90;;;14.18;88.18;100431.09;5034168;28;20041;-72
2023/04/23 06:17:39;;;;;;;25.75;20.50;;;13.90;99.90;;;14.30;87.20;100415.69;5034132;28;20277;-71
2023/04/23 06:20:10;;;;;;;28.90;20.27;;;14.00;99.90;;;14.45;86.98;100406.44;5034319;28;20049;-72
2023/04/23 06:22:39;;;;;;;26.65;20.55;;;14.20;99.90;;;14.55;86.78;100405.28;5032940;28;20450;-72
2023/04/23 06:25:09;;;;;;;23.90;18.52;;;14.30;99.90;;;14.61;85.46;100404.22;5033649;28;20487;-71
2023/04/23 06:27:37;;;;;;;22.02;17.55;;;14.40;99.90;;;14.69;84.95;100411.06;5033955;28;20103;-71
2023/04/23 06:30:13;;;;;;;24.83;18.23;;;14.40;99.90;;;14.83;84.81;100403.56;5032213;28;20071;-70
2023/04/23 06:32:42;;;;;;;26.15;18.10;;;14.50;99.90;;;15.00;84.59;100400.41;5032261;28;20071;-70
2023/04/23 06:35:12;;;;;;;24.33;17.08;;;14.70;99.90;;;15.11;84.01;100401.84;5033758;28;20124;-70
2023/04/23 06:37:40;;;;;;;26.40;17.17;;;14.80;99.90;;;15.12;83.53;100395.56;5049470;28;20135;-70
2023/04/23 06:40:10;;;;;;;24.50;17.35;;;14.80;99.90;;;15.22;83.02;100393.50;5033746;28;20056;-71
2023/04/23 06:42:38;;;;;;;23.77;16.75;;;14.90;99.90;;;15.00;83.02;100363.97;5033365;28;20499;-72
2023/04/23 06:45:18;;;;;;;22.42;16.00;;;14.90;99.90;;;15.13;82.48;100394.66;5032125;28;20081;-71
2023/04/23 06:47:48;;;;;;;20.15;15.63;;;14.90;99.90;;;15.21;82.44;100384.63;5033836;28;20499;-74
2023/04/23 06:50:18;;;;;;;25.17;16.27;;;14.90;99.90;;;15.26;82.10;100389.81;5032093;28;20052;-70
2023/04/23 06:52:46;;;;;;;21.10;15.55;;;15.00;99.90;;;15.16;82.24;100361.72;5032169;28;20042;-70
2023/04/23 06:55:14;;;;;;;22.02;14.90;;;15.10;99.90;;;15.45;81.83;100391.00;5033574;28;20034;-71
2023/04/23 06:57:43;;;;;;;23.10;15.27;;;15.20;99.90;;;15.50;81.78;100389.09;5033339;28;20434;-69
2023/04/23 07:00:13;;;;;;;23.35;15.13;;;15.20;99.90;;;15.57;80.94;100387.09;5034583;28;20049;-71
2023/04/23 07:02:43;;;;;;;20.65;13.93;;;15.30;99.90;;;15.49;79.97;100383.78;5035273;28;20057;-72
2023/04/23 07:05:12;;;;;;;21.15;14.70;;;15.20;99.90;;;15.42;80.49;100377.81;5035257;28;20045;-73
2023/04/23 07:07:42;;;;;;;20.38;13.90;;;15.20;99.90;;;15.54;80.87;100376.53;5034020;28;20053;-72
2023/04/23 07:10:12;;;;;;;20.17;13.80;;;15.30;99.90;;;15.55;80.79;100395.13;5033230;28;20053;-73
2023/04/23 07:12:45;;;;;;;18.92;14.45;;;15.30;99.90;;;15.46;81.04;100391.91;5048551;28;20410;-70
2023/04/23 07:15:13;;;;;;;23.40;14.25;;;15.20;99.90;;;15.57;80.61;100395.06;5032839;28;20048;-73
2023/04/23 07:17:41;;;;;;;20.00;12.73;;;15.30;99.90;;;15.55;80.32;100378.25;5031591;28;20050;-73
2023/04/23 07:20:10;;;;;;;17.85;13.02;;;15.30;99.90;;;15.50;80.51;100364.22;5033182;28;20084;-72
2023/04/23 07:22:41;;;;;;;18.08;12.38;;;15.30;99.90;;;15.42;81.01;100347.59;5032922;28;20076;-72
2023/04/23 07:25:11;;;;;;;21.98;12.88;;;15.30;99.90;;;15.68;80.09;100369.81;5032763;28;20045;-73
2023/04/23 07:27:40;;;;;;;17.52;12.48;;;15.40;99.90;;;15.85;80.92;100382.59;5032867;28;20531;-71
2023/04/23 07:30:09;;;;;;;18.05;12.18;;;15.60;99.90;;;15.82;79.97;100364.88;5031921;28;20052;-73
2023/04/23 07:32:38;;;;;;;19.63;12.30;;;15.60;99.90;;;15.90;80.05;100386.84;5032833;28;20394;-72
2023/04/23 07:35:10;;;;;;;18.20;11.75;;;15.70;99.90;;;15.89;80.15;100378.91;5032217;28;20064;-72
2023/04/23 07:37:39;;;;;;;17.50;12.55;;;15.60;99.90;;;15.89;79.48;100379.75;5032669;28;20514;-73
2023/04/23 07:40:10;;;;;;;16.92;10.77;;;15.60;99.90;;;15.87;79.13;100378.09;5032881;28;20188;-73
2023/04/23 07:42:39;;;;;;;15.90;11.95;;;15.70;99.90;;;15.76;80.20;100386.44;5032596;28;20041;-72
2023/04/23 07:45:10;;;;;;;18.58;11.63;;;15.60;99.90;;;15.88;80.92;100396.69;5033099;28;20053;-74
2023/04/23 07:47:38;;;;;;;18.50;12.00;;;15.60;99.90;;;15.89;80.77;100378.91;5033055;28;20049;-74
2023/04/23 07:50:08;;;;;;;16.73;11.02;;;15.70;99.90;;;16.08;80.76;100382.69;5032603;28;20042;-72
2023/04/23 07:52:37;;;;;;;18.38;11.43;;;15.80;99.90;;;15.94;80.42;100374.28;5032654;28;20041;-73
2023/04/23 07:55:09;;;;;;;20.90;11.95;;;15.70;99.90;;;15.90;80.18;100335.28;5032302;28;20041;-73
2023/04/23 07:57:37;;;;;;;19.48;14.20;;;15.80;99.90;;;16.27;80.24;100370.44;5032328;28;20052;-71
2023/04/23 08:00:08;;;;;;;21.45;12.85;;;16.00;99.90;;;16.35;79.89;100355.03;5032566;28;20079;-70
2023/04/23 08:02:40;;;;;;;19.20;11.57;;;16.10;99.90;;;16.46;79.72;100355.50;5032626;28;20060;-70
2023/04/23 08:05:09;;;;;;;23.63;11.95;;;16.30;99.90;;;16.52;78.39;100357.97;5032259;28;20558;-72
2023/04/23 08:07:38;;;;;;;24.75;10.52;;;16.30;99.90;;;16.50;77.82;100372.31;5030990;28;20514;-70
2023/04/23 08:10:09;;;;;;;23.00;11.23;;;16.30;99.90;;;16.62;77.88;100372.75;5031313;28;20076;-72
2023/04/23 08:12:38;;;;;;;20.08;10.48;;;16.40;99.90;;;16.67;77.19;100377.88;5032653;28;20053;-78
2023/04/23 08:15:08;;;;;;;17.80;10.73;;;16.50;99.90;;;16.68;77.90;100361.84;5035993;28;20463;-72
2023/04/23 08:17:40;;;;;;;20.95;10.98;;;16.50;99.90;;;16.65;76.82;100355.69;5035222;28;20091;-74
2023/04/23 08:20:09;;;;;;;16.63;10.45;;;16.50;99.90;;;16.70;76.91;100354.63;5036762;28;20053;-75
2023/04/23 08:22:38;;;;;;;20.63;10.68;;;16.50;99.90;;;16.68;77.08;100358.28;5036118;28;20042;-74
2023/04/23 08:25:09;;;;;;;19.23;11.20;;;16.50;99.90;;;16.77;76.52;100353.47;5034997;28;20091;-72
2023/04/23 08:27:37;;;;;;;17.60;10.73;;;16.60;99.90;;;16.83;76.03;100357.69;5034889;28;20396;-73
2023/04/23 08:30:08;;;;;;;21.25;10.43;;;16.70;99.90;;;16.89;74.78;100387.72;5035808;28;20128;-74
2023/04/23 08:32:38;;;;;;;17.50;11.10;;;16.70;99.90;;;16.92;75.38;100368.03;5035914;28;20079;-77
2023/04/23 08:35:08;;;;;;;17.48;11.02;;;16.70;99.90;;;17.14;75.81;100372.50;5035884;28;20522;-73
2023/04/23 08:37:37;;;;;;;17.30;10.30;;;16.90;99.90;;;17.30;76.10;100369.22;5036086;28;20053;-74
2023/04/23 08:40:09;;;;;;;18.52;11.70;;;17.00;99.90;;;17.44;75.22;100380.22;5036070;28;20041;-73
2023/04/23 08:42:43;;;;;;;16.58;10.20;;;17.20;99.90;;;16.95;73.63;100285.09;5034531;28;20073;-76
2023/04/23 08:45:13;;;;;;;18.40;12.93;;;17.30;99.90;;;17.47;73.48;100375.63;5035467;28;20055;-73
2023/04/23 08:47:43;;;;;;;17.65;10.57;;;17.20;99.90;;;17.52;74.42;100365.63;5035485;28;20045;-71
2023/04/23 08:50:13;;;;;;;21.30;14.52;;;17.40;99.90;;;17.61;72.92;100384.00;5037212;28;20045;-72
2023/04/23 08:52:47;;;;;;;22.90;12.45;;;17.40;99.90;;;17.68;72.57;100385.47;5035575;28;20136;-72
2023/04/23 08:55:17;;;;;;;18.88;11.85;;;17.40;99.90;;;17.67;71.88;100383.72;5035574;28;20175;-72
2023/04/23 08:57:47;;;;;;;19.50;11.00;;;17.40;99.90;;;17.80;72.94;100394.81;5035262;28;20065;-71
2023/04/23 09:00:17;;;;;;;22.45;11.75;;;17.50;99.90;;;17.67;72.60;100380.19;5035279;28;20461;-73
2023/04/23 09:02:47;;;;;;;;;;;17.50;99.90;;;17.50;71.97;100380.03;5035738;28;20038;-72
2023/04/23 09:05:16;;;;;;;23.10;12.35;;;17.30;99.90;;;17.28;72.80;100373.75;5035261;28;19921;-77
2023/04/23 09:07:45;;;;;;;19.38;11.82;;;17.10;99.90;;;17.46;73.30;100379.22;5035193;28;20041;-71
2023/04/23 09:10:15;;;;;;;21.58;11.13;;;17.20;99.90;;;17.32;71.97;100386.94;5035310;28;20115;-70
2023/04/23 09:12:46;;;;;;;16.23;10.00;;;17.20;99.90;;;17.42;73.22;100371.41;5035162;28;20041;-73
2023/04/23 09:15:17;;;;;;;16.33;9.15;;;17.20;99.90;;;17.39;72.68;100353.66;5034823;28;20452;-73
2023/04/23 09:17:47;;;;;;;18.55;9.32;;;17.20;99.90;;;17.43;72.92;100359.75;5035682;28;20065;-73
2023/04/23 09:20:16;;;;;;;19.88;9.85;;;17.20;99.90;;;17.56;72.56;100361.91;5034892;28;20490;-72
2023/04/23 09:22:46;;;;;;;16.35;8.70;;;17.30;99.90;;;17.72;72.29;100346.97;5034643;28;20084;-72
2023/04/23 09:25:19;;;;;;;18.85;8.88;;;17.40;99.90;;;17.92;72.45;100364.88;5034964;28;20490;-72
2023/04/23 09:27:49;;;;;;;17.55;8.30;;;17.60;99.90;;;17.54;71.82;100369.13;5035051;28;20053;-72
2023/04/23 09:30:18;;;;;;;24.45;10.63;;;17.40;99.90;;;17.53;72.59;100342.44;5033367;28;20474;-73
2023/04/23 09:32:48;;;;;;;23.88;8.63;;;17.30;99.90;;;17.58;71.70;100345.78;5034613;28;20057;-73
2023/04/23 09:35:19;;;;;;;17.90;9.43;;;17.30;99.90;;;17.58;71.90;100348.47;5034815;28;20511;-72
2023/04/23 09:37:52;;;;;;;23.80;9.40;;;17.30;99.90;;;17.54;72.10;100360.22;5034857;28;20381;-72
2023/04/23 09:40:24;;;;;;;18.60;8.40;;;17.30;99.90;;;17.40;72.33;100357.22;5034690;28;20060;-72
2023/04/23 09:42:53;;;;;;;18.23;8.32;;;17.20;99.90;;;17.39;72.48;100339.44;5034774;28;20041;-73
2023/04/23 09:45:23;;;;;;;17.05;8.65;;;17.20;99.90;;;17.37;73.02;100341.28;5049782;28;20056;-73
2023/04/23 09:47:54;;;;;;;19.80;8.07;;;17.20;99.90;;;17.50;71.92;100338.09;5034875;28;20045;-73
2023/04/23 09:50:33;;;;;;;17.13;7.93;;;17.20;99.90;;;17.46;72.20;100327.56;5034410;28;20060;-73
2023/04/23 09:53:02;;;;;;;16.50;7.25;;;17.30;99.90;;;17.47;71.40;100356.03;5034394;28;20161;-72
2023/04/23 09:55:37;;;;;;;16.08;7.35;;;17.30;99.90;;;17.32;71.38;100333.47;5034682;28;20045;-72
2023/04/23 09:58:07;;;;;;;16.52;6.85;;;17.20;99.90;;;17.50;71.00;100359.47;5034633;28;20044;-72
2023/04/23 10:00:37;;;;;;;19.65;9.05;;;17.20;99.90;;;17.29;72.30;100335.38;5034576;28;20069;-72
2023/04/23 10:03:07;;;;;;;17.60;8.38;;;17.10;99.90;;;17.26;72.33;100336.41;5034326;28;20486;-72
2023/04/23 10:05:40;;;;;;;18.08;7.03;;;17.00;99.90;;;17.51;73.86;100334.50;5034021;28;20095;-73
2023/04/23 10:08:13;;;;;;;21.63;7.18;;;17.20;99.90;;;17.54;72.17;100325.44;5033998;28;20050;-73